Time;durP1;ratioP1;P1;durP2;ratioP2;P2;SDS_P1;SDS_P2;PMS_P1;PMS_P2;Temp;Humidity;BMP_temperature;BMP_pressure;BME280_temperature;BME280_humidity;BME280_pressure;Samples;Min_cycle;Max_cycle;Signal;HPM_P1;HPM_P2
2021/07/31 00:01:22;;;;;;;;;1.50;1.50;;;;;;;;5036912;28;45637;-81
2021/07/31 00:03:47;;;;;;;;;1.00;1.00;;;;;;;;5038418;27;45784;-80
2021/07/31 00:06:12;;;;;;;;;4.67;2.00;;;;;;;;5040571;27;45444;-80
2021/07/31 00:08:37;;;;;;;;;3.00;1.00;;;;;;;;5040307;27;45497;-80
2021/07/31 00:11:02;;;;;;;;;3.00;1.00;;;;;;;;5036557;27;45721;-80
2021/07/31 00:13:28;;;;;;;;;1.33;1.00;;;;;;;;5041197;28;45488;-79
2021/07/31 00:15:53;;;;;;;;;2.00;1.00;;;;;;;;5041812;27;45453;-79
2021/07/31 00:18:19;;;;;;;;;1.75;0.50;;;;;;;;5042145;27;45281;-79
2021/07/31 00:20:44;;;;;;;;;1.00;1.00;;;;;;;;5016210;27;47430;-79
2021/07/31 00:23:10;;;;;;;;;4.00;1.00;;;;;;;;5020168;27;46125;-80
2021/07/31 00:25:35;;;;;;;;;1.25;1.25;;;;;;;;5036836;28;45726;-78
2021/07/31 00:28:00;;;;;;;;;1.75;1.75;;;;;;;;5055999;27;45437;-75
2021/07/31 00:30:27;;;;;;;;;3.75;2.50;;;;;;;;5038043;27;45989;-78
2021/07/31 00:32:53;;;;;;;;;4.75;1.25;;;;;;;;5041971;27;45245;-78
2021/07/31 00:35:18;;;;;;;;;2.00;2.00;;;;;;;;5042734;27;45790;-78
2021/07/31 00:37:44;;;;;;;;;2.00;2.00;;;;;;;;5040543;28;45497;-79
2021/07/31 00:40:10;;;;;;;;;2.33;1.33;;;;;;;;5038743;27;45401;-79
2021/07/31 00:42:38;;;;;;;;;2.00;2.00;;;;;;;;5036715;27;45491;-80
2021/07/31 00:45:04;;;;;;;;;2.00;2.00;;;;;;;;5054296;28;45411;-79
2021/07/31 00:47:29;;;;;;;;;2.00;1.50;;;;;;;;5037234;27;45425;-78
2021/07/31 00:49:55;;;;;;;;;3.00;2.00;;;;;;;;5040629;27;45545;-80
2021/07/31 00:52:20;;;;;;;;;2.00;2.00;;;;;;;;5022341;28;45917;-79
2021/07/31 00:54:45;;;;;;;;;2.33;2.33;;;;;;;;5041725;27;45774;-80
2021/07/31 00:57:11;;;;;;;;;2.00;2.00;;;;;;;;5042752;28;45933;-80
2021/07/31 00:59:36;;;;;;;;;1.00;1.00;;;;;;;;5039780;27;45514;-79
2021/07/31 01:02:01;;;;;;;;;2.00;2.00;;;;;;;;5042794;27;45623;-79
2021/07/31 01:04:27;;;;;;;;;2.00;2.00;;;;;;;;5035682;28;45386;-79
2021/07/31 01:06:52;;;;;;;;;4.00;1.33;;;;;;;;5038138;28;45495;-80
2021/07/31 01:09:17;;;;;;;;;1.67;1.67;;;;;;;;5033102;27;46480;-80
2021/07/31 01:11:42;;;;;;;;;2.67;1.00;;;;;;;;5022210;27;45865;-80
2021/07/31 01:14:08;;;;;;;;;2.67;2.00;;;;;;;;5044309;27;46022;-79
2021/07/31 01:16:33;;;;;;;;;2.75;1.00;;;;;;;;5038376;28;45778;-80
2021/07/31 01:18:59;;;;;;;;;1.75;1.75;;;;;;;;5036549;27;45654;-79
2021/07/31 01:21:37;;;;;;;;;4.00;2.00;;;;;;;;5038052;27;45529;-79
2021/07/31 01:24:03;;;;;;;;;3.25;1.50;;;;;;;;5042054;27;45513;-79
2021/07/31 01:26:28;;;;;;;;;2.00;2.00;;;;;;;;5026814;27;45463;-79
2021/07/31 01:28:54;;;;;;;;;2.75;2.75;;;;;;;;5035937;27;45578;-79
2021/07/31 01:31:19;;;;;;;;;4.33;2.00;;;;;;;;5021627;28;45599;-80
2021/07/31 01:33:44;;;;;;;;;2.00;2.00;;;;;;;;5038251;27;45869;-79
2021/07/31 01:36:09;;;;;;;;;2.00;2.00;;;;;;;;5047242;27;45474;-79
2021/07/31 01:38:36;;;;;;;;;1.67;1.00;;;;;;;;5036910;27;45970;-79
2021/07/31 01:41:01;;;;;;;;;1.25;1.00;;;;;;;;5018026;27;45642;-79
2021/07/31 01:43:26;;;;;;;;;1.33;1.00;;;;;;;;5039193;28;45444;-79
2021/07/31 01:45:52;;;;;;;;;5.33;2.33;;;;;;;;5038317;27;45457;-79
2021/07/31 01:48:17;;;;;;;;;3.00;1.67;;;;;;;;5020705;27;47342;-79
2021/07/31 01:50:44;;;;;;;;;3.00;2.00;;;;;;;;5016984;27;45388;-78
2021/07/31 01:53:09;;;;;;;;;3.50;2.75;;;;;;;;5034977;27;45524;-79
2021/07/31 01:55:34;;;;;;;;;4.00;2.00;;;;;;;;5043044;28;45709;-79
2021/07/31 01:58:00;;;;;;;;;1.33;1.33;;;;;;;;5035053;27;45492;-79
2021/07/31 02:00:25;;;;;;;;;4.25;1.25;;;;;;;;5040286;27;46579;-79
2021/07/31 02:02:50;;;;;;;;;2.00;1.00;;;;;;;;5043829;27;45380;-79
2021/07/31 02:05:15;;;;;;;;;1.00;0.00;;;;;;;;5038745;27;45477;-77
2021/07/31 02:07:41;;;;;;;;;4.33;1.67;;;;;;;;5037663;28;45968;-79
2021/07/31 02:10:06;;;;;;;;;1.00;1.00;;;;;;;;5035397;27;45422;-78
2021/07/31 02:12:31;;;;;;;;;3.75;2.00;;;;;;;;5037391;27;45493;-79
2021/07/31 02:14:56;;;;;;;;;1.00;1.00;;;;;;;;5017046;28;45692;-78
2021/07/31 02:17:22;;;;;;;;;1.33;1.33;;;;;;;;5038742;28;46232;-79
2021/07/31 02:19:47;;;;;;;;;2.33;1.33;;;;;;;;5040942;28;45460;-78
2021/07/31 02:22:12;;;;;;;;;4.00;2.00;;;;;;;;5036203;27;45422;-80
2021/07/31 02:24:37;;;;;;;;;5.67;1.00;;;;;;;;5035377;27;45487;-78
2021/07/31 02:27:03;;;;;;;;;2.00;2.00;;;;;;;;5017314;27;46190;-79
2021/07/31 02:29:28;;;;;;;;;3.25;1.25;;;;;;;;5038917;27;45417;-79
2021/07/31 02:31:53;;;;;;;;;3.00;1.33;;;;;;;;5039929;27;45465;-79
2021/07/31 02:34:18;;;;;;;;;1.00;1.00;;;;;;;;5040074;28;45459;-78
2021/07/31 02:36:44;;;;;;;;;3.00;1.00;;;;;;;;5041663;27;45716;-79
2021/07/31 02:39:09;;;;;;;;;1.00;1.00;;;;;;;;5021346;27;45664;-79
2021/07/31 02:41:34;;;;;;;;;3.00;1.00;;;;;;;;5055125;27;45488;-79
2021/07/31 02:43:59;;;;;;;;;2.33;2.33;;;;;;;;5036475;28;45603;-79
2021/07/31 02:46:25;;;;;;;;;2.75;1.00;;;;;;;;5038442;28;45606;-80
2021/07/31 02:48:50;;;;;;;;;3.67;1.00;;;;;;;;5014944;27;45280;-79
2021/07/31 02:51:17;;;;;;;;;2.00;2.00;;;;;;;;5026975;27;48700;-80
2021/07/31 02:53:43;;;;;;;;;3.50;2.00;;;;;;;;5040338;28;45381;-80
2021/07/31 02:56:08;;;;;;;;;3.00;1.67;;;;;;;;5037788;27;47877;-77
2021/07/31 02:58:33;;;;;;;;;1.67;1.67;;;;;;;;5024625;28;46693;-79
2021/07/31 03:01:04;;;;;;;;;1.00;1.00;;;;;;;;5042202;27;45478;-79
2021/07/31 03:03:29;;;;;;;;;4.00;2.00;;;;;;;;5017738;27;45685;-80
2021/07/31 03:05:56;;;;;;;;;1.75;1.75;;;;;;;;5041631;27;46153;-79
2021/07/31 03:08:21;;;;;;;;;3.50;1.75;;;;;;;;5041414;27;45992;-79
2021/07/31 03:10:51;;;;;;;;;2.50;0.75;;;;;;;;5037900;27;45558;-78
2021/07/31 03:13:16;;;;;;;;;1.75;1.00;;;;;;;;5018937;28;47320;-80
2021/07/31 03:15:42;;;;;;;;;5.00;2.00;;;;;;;;5112983;27;47984;-80
2021/07/31 03:18:07;;;;;;;;;3.67;1.00;;;;;;;;5044025;27;45435;-78
2021/07/31 03:20:32;;;;;;;;;2.00;2.00;;;;;;;;5043358;27;45361;-80
2021/07/31 03:22:57;;;;;;;;;7.33;2.00;;;;;;;;5041905;27;45472;-79
2021/07/31 03:25:22;;;;;;;;;2.33;1.67;;;;;;;;5038809;28;45503;-79
2021/07/31 03:27:47;;;;;;;;;2.00;1.33;;;;;;;;5040402;27;45541;-80
2021/07/31 03:30:13;;;;;;;;;2.00;2.00;;;;;;;;5036845;27;45425;-79
2021/07/31 03:32:38;;;;;;;;;2.75;1.00;;;;;;;;5044283;27;45346;-79
2021/07/31 03:35:03;;;;;;;;;3.00;1.00;;;;;;;;5040225;27;45510;-79
2021/07/31 03:37:29;;;;;;;;;6.00;1.75;;;;;;;;5042212;28;45433;-79
2021/07/31 03:39:54;;;;;;;;;3.00;1.00;;;;;;;;5038846;27;46758;-79
2021/07/31 03:42:19;;;;;;;;;3.25;2.00;;;;;;;;5041649;27;45489;-79
2021/07/31 03:44:44;;;;;;;;;3.00;1.00;;;;;;;;5040819;27;45283;-79
2021/07/31 03:47:09;;;;;;;;;2.67;1.33;;;;;;;;5044228;27;45973;-79
2021/07/31 03:49:35;;;;;;;;;4.00;2.33;;;;;;;;5036763;28;45461;-79
2021/07/31 03:52:00;;;;;;;;;2.00;2.00;;;;;;;;5037105;27;45274;-79
2021/07/31 03:54:25;;;;;;;;;3.00;2.00;;;;;;;;5019087;27;46228;-79
2021/07/31 03:56:50;;;;;;;;;3.33;1.00;;;;;;;;5035470;27;45566;-80
2021/07/31 03:59:16;;;;;;;;;3.00;2.00;;;;;;;;5041994;27;45612;-80
2021/07/31 04:01:41;;;;;;;;;2.75;1.50;;;;;;;;5038253;28;45835;-79
2021/07/31 04:04:06;;;;;;;;;4.00;2.67;;;;;;;;5038075;27;45432;-79
2021/07/31 04:06:31;;;;;;;;;2.00;2.00;;;;;;;;5039592;27;45168;-79
2021/07/31 04:08:57;;;;;;;;;5.33;3.00;;;;;;;;5041894;27;45510;-80
2021/07/31 04:11:22;;;;;;;;;3.33;2.00;;;;;;;;5043824;27;45419;-79
2021/07/31 04:13:47;;;;;;;;;4.25;3.50;;;;;;;;5035149;28;46305;-79
2021/07/31 04:16:12;;;;;;;;;4.00;2.00;;;;;;;;5042477;27;45392;-79
2021/07/31 04:18:38;;;;;;;;;1.33;1.33;;;;;;;;5038740;27;45523;-80
2021/07/31 04:21:07;;;;;;;;;3.00;2.00;;;;;;;;5043392;27;45960;-80
2021/07/31 04:23:32;;;;;;;;;3.00;3.00;;;;;;;;5037777;27;45465;-79
2021/07/31 04:25:58;;;;;;;;;2.75;2.00;;;;;;;;5032563;27;45578;-80
2021/07/31 04:28:23;;;;;;;;;2.75;2.75;;;;;;;;5039387;28;45589;-80
2021/07/31 04:30:48;;;;;;;;;5.00;3.33;;;;;;;;5042332;27;45566;-79
2021/07/31 04:33:14;;;;;;;;;5.67;2.33;;;;;;;;5042412;27;45599;-79
2021/07/31 04:35:39;;;;;;;;;4.75;3.00;;;;;;;;5052496;28;45484;-79
2021/07/31 04:38:04;;;;;;;;;3.33;3.00;;;;;;;;5040483;27;45582;-79
2021/07/31 04:40:29;;;;;;;;;3.00;3.00;;;;;;;;5038406;28;45338;-79
2021/07/31 04:42:55;;;;;;;;;4.00;2.00;;;;;;;;5038027;27;45596;-79
2021/07/31 04:45:20;;;;;;;;;5.00;3.00;;;;;;;;5038535;27;45422;-80
2021/07/31 04:47:45;;;;;;;;;3.50;2.00;;;;;;;;5015380;27;45453;-79
2021/07/31 04:50:13;;;;;;;;;3.33;2.00;;;;;;;;5032926;27;45634;-79
2021/07/31 04:52:38;;;;;;;;;3.50;2.00;;;;;;;;5020147;28;47140;-80
2021/07/31 04:55:04;;;;;;;;;3.33;2.33;;;;;;;;5040474;27;45814;-79
2021/07/31 04:57:29;;;;;;;;;4.00;4.00;;;;;;;;5039025;27;45645;-79
2021/07/31 04:59:54;;;;;;;;;2.00;1.00;;;;;;;;5041296;27;45532;-80
2021/07/31 05:02:19;;;;;;;;;4.00;3.00;;;;;;;;5013325;27;47073;-80
2021/07/31 05:04:45;;;;;;;;;6.67;3.00;;;;;;;;5039055;28;45537;-80
2021/07/31 05:07:10;;;;;;;;;5.00;2.67;;;;;;;;5036963;27;45478;-80
2021/07/31 05:09:35;;;;;;;;;3.00;3.00;;;;;;;;5038376;27;45336;-79
2021/07/31 05:12:00;;;;;;;;;4.00;4.00;;;;;;;;5038370;27;45426;-79
2021/07/31 05:14:26;;;;;;;;;5.00;4.00;;;;;;;;5040051;27;45592;-79
2021/07/31 05:16:52;;;;;;;;;3.00;3.00;;;;;;;;5033897;27;45435;-78
2021/07/31 05:19:17;;;;;;;;;3.00;3.00;;;;;;;;5033627;28;45539;-79
2021/07/31 05:21:43;;;;;;;;;5.00;3.33;;;;;;;;5034405;27;45478;-79
2021/07/31 05:24:08;;;;;;;;;3.50;3.50;;;;;;;;5041485;27;45472;-79
2021/07/31 05:26:33;;;;;;;;;4.00;3.00;;;;;;;;5034525;27;45484;-80
2021/07/31 05:28:58;;;;;;;;;3.33;3.00;;;;;;;;5015910;27;45653;-80
2021/07/31 05:31:23;;;;;;;;;3.00;3.00;;;;;;;;5030208;27;45544;-78
2021/07/31 05:33:49;;;;;;;;;5.25;4.00;;;;;;;;5028598;27;45537;-79
2021/07/31 05:36:14;;;;;;;;;3.50;3.00;;;;;;;;5014590;27;45392;-79
2021/07/31 05:38:40;;;;;;;;;6.75;4.00;;;;;;;;5040515;27;45472;-79
2021/07/31 05:41:05;;;;;;;;;4.50;3.00;;;;;;;;5038986;27;46020;-79
2021/07/31 05:43:31;;;;;;;;;7.33;3.00;;;;;;;;5033958;28;45400;-79
2021/07/31 05:45:56;;;;;;;;;4.00;4.00;;;;;;;;5037021;27;45454;-79
2021/07/31 05:48:21;;;;;;;;;4.50;3.25;;;;;;;;5031402;27;45378;-79
2021/07/31 05:50:46;;;;;;;;;5.00;3.00;;;;;;;;5036441;27;46192;-80
2021/07/31 05:53:11;;;;;;;;;4.00;4.00;;;;;;;;5039692;28;45505;-80
2021/07/31 05:55:37;;;;;;;;;4.33;3.00;;;;;;;;5033948;27;45369;-79
2021/07/31 05:58:02;;;;;;;;;3.25;2.75;;;;;;;;5013489;27;45535;-79
2021/07/31 06:00:27;;;;;;;;;5.00;3.25;;;;;;;;5033305;27;45366;-79
2021/07/31 06:02:53;;;;;;;;;4.00;3.00;;;;;;;;5042501;27;45322;-79
2021/07/31 06:05:18;;;;;;;;;4.00;4.00;;;;;;;;5034064;27;45492;-79
2021/07/31 06:07:43;;;;;;;;;3.00;3.00;;;;;;;;5034532;28;45438;-80
2021/07/31 06:10:09;;;;;;;;;5.00;2.00;;;;;;;;5034421;27;46102;-79
2021/07/31 06:12:34;;;;;;;;;5.00;3.25;;;;;;;;5025312;27;45473;-79
2021/07/31 06:15:00;;;;;;;;;3.00;3.00;;;;;;;;5035789;27;45436;-80
2021/07/31 06:17:25;;;;;;;;;3.67;3.67;;;;;;;;5039175;27;45525;-81
2021/07/31 06:19:50;;;;;;;;;6.33;3.33;;;;;;;;5034176;27;45365;-80
2021/07/31 06:22:15;;;;;;;;;4.67;4.00;;;;;;;;5033895;27;45496;-79
2021/07/31 06:24:41;;;;;;;;;3.75;2.75;;;;;;;;5016110;27;45505;-79
2021/07/31 06:27:06;;;;;;;;;3.67;3.00;;;;;;;;5002392;27;47015;-80
2021/07/31 06:29:32;;;;;;;;;4.50;4.00;;;;;;;;5027107;27;46882;-79
2021/07/31 06:31:57;;;;;;;;;7.50;3.75;;;;;;;;5032493;27;45773;-80
2021/07/31 06:34:22;;;;;;;;;3.00;3.00;;;;;;;;5024052;28;45403;-80
2021/07/31 06:36:48;;;;;;;;;5.00;4.00;;;;;;;;5041028;28;45567;-79
2021/07/31 06:39:13;;;;;;;;;5.50;3.00;;;;;;;;5017765;27;45748;-80
2021/07/31 06:41:38;;;;;;;;;4.00;4.00;;;;;;;;5002833;27;45368;-80
2021/07/31 06:44:04;;;;;;;;;4.67;2.00;;;;;;;;5020793;27;45468;-79
2021/07/31 06:46:29;;;;;;;;;6.75;5.00;;;;;;;;5029379;28;47199;-79
2021/07/31 06:48:55;;;;;;;;;3.00;3.00;;;;;;;;5022535;27;45802;-80
2021/07/31 06:51:21;;;;;;;;;4.75;3.25;;;;;;;;5033517;27;45439;-80
2021/07/31 06:53:47;;;;;;;;;3.00;3.00;;;;;;;;5038254;27;45517;-79
2021/07/31 06:56:12;;;;;;;;;8.75;5.50;;;;;;;;5032876;27;45432;-79
2021/07/31 06:58:38;;;;;;;;;4.25;4.00;;;;;;;;5027742;27;46586;-79
2021/07/31 07:01:07;;;;;;;;;6.00;4.00;;;;;;;;5029877;28;45505;-80
2021/07/31 07:03:32;;;;;;;;;5.00;4.25;;;;;;;;5032046;27;45353;-79
2021/07/31 07:06:02;;;;;;;;;5.25;4.00;;;;;;;;5037726;27;45522;-79
2021/07/31 07:08:27;;;;;;;;;7.00;4.00;;;;;;;;5017942;27;47117;-78
2021/07/31 07:10:52;;;;;;;;;4.67;4.33;;;;;;;;5034992;27;45220;-79
2021/07/31 07:13:17;;;;;;;;;5.33;4.00;;;;;;;;5035209;28;45499;-79
2021/07/31 07:15:42;;;;;;;;;4.00;4.00;;;;;;;;5029084;27;45482;-79
2021/07/31 07:18:08;;;;;;;;;3.00;3.00;;;;;;;;5028823;27;45568;-80
2021/07/31 07:20:33;;;;;;;;;4.00;4.00;;;;;;;;5017228;27;45307;-79
2021/07/31 07:22:58;;;;;;;;;7.00;4.00;;;;;;;;5018416;27;45451;-79
2021/07/31 07:25:23;;;;;;;;;5.33;5.00;;;;;;;;5021136;28;45467;-80
2021/07/31 07:27:49;;;;;;;;;4.67;4.00;;;;;;;;5015065;27;45695;-79
2021/07/31 07:30:14;;;;;;;;;6.00;4.33;;;;;;;;5023964;27;45765;-78
2021/07/31 07:32:39;;;;;;;;;4.33;3.33;;;;;;;;5026256;27;45557;-79
2021/07/31 07:35:05;;;;;;;;;5.00;3.50;;;;;;;;5013739;27;45612;-79
2021/07/31 07:37:31;;;;;;;;;6.00;4.75;;;;;;;;5017318;28;46239;-79
2021/07/31 07:39:58;;;;;;;;;5.25;3.50;;;;;;;;5022416;27;45622;-79
2021/07/31 07:42:23;;;;;;;;;6.50;4.00;;;;;;;;5027850;27;45438;-79
2021/07/31 07:44:48;;;;;;;;;5.50;4.50;;;;;;;;5032214;27;45418;-78
2021/07/31 07:47:14;;;;;;;;;4.33;4.33;;;;;;;;5029806;27;45585;-80
2021/07/31 07:49:39;;;;;;;;;6.67;4.00;;;;;;;;5027604;28;45443;-80
2021/07/31 07:52:05;;;;;;;;;10.00;6.25;;;;;;;;5025289;27;45360;-79
2021/07/31 07:54:30;;;;;;;;;6.25;3.00;;;;;;;;5031113;27;45460;-79
2021/07/31 07:56:56;;;;;;;;;4.50;4.50;;;;;;;;5029871;27;45603;-79
2021/07/31 07:59:21;;;;;;;;;4.25;4.25;;;;;;;;5024079;27;45657;-80
2021/07/31 08:01:46;;;;;;;;;4.00;3.33;;;;;;;;5036073;28;45465;-78
2021/07/31 08:04:12;;;;;;;;;7.00;5.33;;;;;;;;5032607;27;45483;-79
2021/07/31 08:06:38;;;;;;;;;6.50;4.00;;;;;;;;5036633;27;45519;-80
2021/07/31 08:09:03;;;;;;;;;5.25;5.25;;;;;;;;5027651;27;46021;-79
2021/07/31 08:11:28;;;;;;;;;4.00;3.00;;;;;;;;5013916;27;45490;-79
2021/07/31 08:13:53;;;;;;;;;4.00;3.67;;;;;;;;5030849;27;45639;-79
2021/07/31 08:16:18;;;;;;;;;4.00;4.00;;;;;;;;5012248;28;48168;-79
2021/07/31 08:18:44;;;;;;;;;5.33;5.33;;;;;;;;5028968;27;45436;-79
2021/07/31 08:21:09;;;;;;;;;5.00;4.00;;;;;;;;5039032;27;45523;-79
2021/07/31 08:23:34;;;;;;;;;3.50;3.00;;;;;;;;5034548;27;45442;-79
2021/07/31 08:26:02;;;;;;;;;5.00;4.00;;;;;;;;5037801;27;46030;-80
2021/07/31 08:28:27;;;;;;;;;7.00;4.00;;;;;;;;5020059;27;45522;-80
2021/07/31 08:30:52;;;;;;;;;6.67;4.00;;;;;;;;5014406;27;45406;-79
2021/07/31 08:33:17;;;;;;;;;4.33;3.67;;;;;;;;5031158;27;45520;-79
2021/07/31 08:35:42;;;;;;;;;3.33;2.33;;;;;;;;5017313;27;47534;-80
2021/07/31 08:38:08;;;;;;;;;3.67;3.67;;;;;;;;5034006;27;45502;-80
2021/07/31 08:40:33;;;;;;;;;4.00;4.00;;;;;;;;5033832;28;45438;-80
2021/07/31 08:42:59;;;;;;;;;4.00;2.75;;;;;;;;5033541;27;45288;-80
2021/07/31 08:45:24;;;;;;;;;4.33;4.33;;;;;;;;5021613;27;46101;-79
2021/07/31 08:47:49;;;;;;;;;3.33;3.33;;;;;;;;5036934;27;45555;-80
2021/07/31 08:50:16;;;;;;;;;8.00;4.75;;;;;;;;5033051;27;45506;-79
2021/07/31 08:52:48;;;;;;;;;3.75;3.75;;;;;;;;5018575;28;45472;-79
2021/07/31 08:55:13;;;;;;;;;3.00;3.00;;;;;;;;5036474;27;45536;-80
2021/07/31 08:57:38;;;;;;;;;5.00;3.33;;;;;;;;5033149;27;45733;-79
2021/07/31 09:00:04;;;;;;;;;4.00;4.00;;;;;;;;5035727;27;45596;-80
2021/07/31 09:02:39;;;;;;;;;6.75;3.75;;;;;;;;5033187;27;45563;-79
2021/07/31 09:05:05;;;;;;;;;4.75;3.75;;;;;;;;5031459;27;46423;-80
2021/07/31 09:07:30;;;;;;;;;4.00;3.75;;;;;;;;5027129;28;45395;-79
2021/07/31 09:09:55;;;;;;;;;8.67;5.00;;;;;;;;5028830;27;45371;-80
2021/07/31 09:12:20;;;;;;;;;4.67;3.67;;;;;;;;5050921;28;45305;-79
2021/07/31 09:14:47;;;;;;;;;3.00;3.00;;;;;;;;5031127;27;46317;-80
2021/07/31 09:17:23;;;;;;;;;3.75;3.00;;;;;;;;5017526;27;46453;-79
2021/07/31 09:19:49;;;;;;;;;5.00;3.00;;;;;;;;5012999;27;45919;-81
2021/07/31 09:22:14;;;;;;;;;4.25;3.75;;;;;;;;5019014;27;49079;-80
2021/07/31 09:24:39;;;;;;;;;3.75;3.75;;;;;;;;5022362;27;45926;-80
2021/07/31 09:27:22;;;;;;;;;4.00;4.00;;;;;;;;5023710;27;45597;-80
2021/07/31 09:29:57;;;;;;;;;6.00;4.00;;;;;;;;5060305;27;45448;-81
2021/07/31 09:32:34;;;;;;;;;4.25;4.25;;;;;;;;5022743;27;49244;-79
2021/07/31 09:35:00;;;;;;;;;4.75;3.00;;;;;;;;5043190;27;47589;-79
2021/07/31 09:37:27;;;;;;;;;2.67;2.67;;;;;;;;5031520;27;45666;-80
2021/07/31 09:39:52;;;;;;;;;3.75;2.50;;;;;;;;5014377;27;45633;-79
2021/07/31 09:42:36;;;;;;;;;6.00;4.00;;;;;;;;5023393;27;45511;-80
2021/07/31 09:45:05;;;;;;;;;5.00;2.25;;;;;;;;5020361;27;46302;-80
2021/07/31 09:47:30;;;;;;;;;2.50;2.50;;;;;;;;5046557;27;45483;-80
2021/07/31 09:49:58;;;;;;;;;3.25;3.00;;;;;;;;5039978;27;45349;-79
2021/07/31 09:52:23;;;;;;;;;4.25;3.25;;;;;;;;5018446;28;45447;-79
2021/07/31 09:54:50;;;;;;;;;6.50;3.00;;;;;;;;5015853;27;46493;-79
2021/07/31 09:57:15;;;;;;;;;3.00;3.00;;;;;;;;5022004;27;46950;-79
2021/07/31 09:59:47;;;;;;;;;3.25;3.25;;;;;;;;5077087;27;45655;-79
2021/07/31 10:02:19;;;;;;;;;6.00;2.25;;;;;;;;5057471;27;45355;-80
2021/07/31 10:04:45;;;;;;;;;5.00;3.00;;;;;;;;5030595;27;46428;-79
2021/07/31 10:07:12;;;;;;;;;2.75;2.75;;;;;;;;5059229;27;45747;-79
2021/07/31 10:09:38;;;;;;;;;4.50;3.25;;;;;;;;5024529;27;45544;-79
2021/07/31 10:12:05;;;;;;;;;4.00;4.00;;;;;;;;5016609;27;45406;-78
2021/07/31 10:14:30;;;;;;;;;4.00;3.25;;;;;;;;5025965;27;45597;-79
2021/07/31 10:16:56;;;;;;;;;5.33;3.00;;;;;;;;5025124;27;45659;-79
2021/07/31 10:19:21;;;;;;;;;3.00;3.00;;;;;;;;5007743;28;46919;-78
2021/07/31 10:21:46;;;;;;;;;5.33;3.33;;;;;;;;5028734;27;45634;-80
2021/07/31 10:24:11;;;;;;;;;4.00;2.25;;;;;;;;5029914;27;45716;-80
2021/07/31 10:26:37;;;;;;;;;4.33;3.00;;;;;;;;5039924;27;45507;-79
2021/07/31 10:29:21;;;;;;;;;2.50;2.50;;;;;;;;5010691;27;45616;-80
2021/07/31 10:31:46;;;;;;;;;3.00;3.00;;;;;;;;5013709;27;45619;-80
2021/07/31 10:34:32;;;;;;;;;3.67;3.00;;;;;;;;5008477;27;45979;-79
2021/07/31 10:36:57;;;;;;;;;3.25;3.25;;;;;;;;5041861;28;45816;-80
2021/07/31 10:39:25;;;;;;;;;4.00;4.00;;;;;;;;5015724;28;45986;-79
2021/07/31 10:41:58;;;;;;;;;6.25;3.50;;;;;;;;5044707;28;45500;-83
2021/07/31 10:44:25;;;;;;;;;5.25;3.50;;;;;;;;5023480;27;47258;-80
2021/07/31 10:47:11;;;;;;;;;2.50;2.50;;;;;;;;5024606;27;45652;-80
2021/07/31 10:49:36;;;;;;;;;4.25;3.00;;;;;;;;5036593;28;45447;-80
2021/07/31 10:52:02;;;;;;;;;4.75;2.00;;;;;;;;5036908;27;46598;-81
2021/07/31 10:54:46;;;;;;;;;4.25;2.50;;;;;;;;5005043;27;47223;-80
2021/07/31 10:57:11;;;;;;;;;2.50;2.50;;;;;;;;5036633;27;45307;-79
2021/07/31 10:59:36;;;;;;;;;3.00;2.25;;;;;;;;5036075;27;45490;-80
2021/07/31 11:02:20;;;;;;;;;4.00;3.00;;;;;;;;5031166;27;45573;-80
2021/07/31 11:04:55;;;;;;;;;4.00;2.00;;;;;;;;5035455;28;45791;-80
2021/07/31 11:07:25;;;;;;;;;2.00;2.00;;;;;;;;5037075;28;45482;-80
2021/07/31 11:10:09;;;;;;;;;4.00;2.00;;;;;;;;5038253;27;45799;-80
2021/07/31 11:12:41;;;;;;;;;6.25;2.00;;;;;;;;5018791;27;45796;-82
2021/07/31 11:15:07;;;;;;;;;7.00;2.50;;;;;;;;5038687;27;46608;-81
2021/07/31 11:17:33;;;;;;;;;3.50;2.00;;;;;;;;5041673;27;45524;-80
2021/07/31 11:19:58;;;;;;;;;4.50;2.50;;;;;;;;5033607;27;46114;-80
2021/07/31 11:22:26;;;;;;;;;3.00;3.00;;;;;;;;5033850;28;45376;-80
2021/07/31 11:24:54;;;;;;;;;3.50;2.50;;;;;;;;5030895;27;47461;-80
2021/07/31 11:27:19;;;;;;;;;2.75;2.00;;;;;;;;5033839;27;45462;-80
2021/07/31 11:29:51;;;;;;;;;1.67;1.67;;;;;;;;5034791;27;45607;-80
2021/07/31 11:32:16;;;;;;;;;2.00;2.00;;;;;;;;5033081;27;45444;-79
2021/07/31 11:34:41;;;;;;;;;2.00;2.00;;;;;;;;5033381;28;45549;-80
2021/07/31 11:37:07;;;;;;;;;2.00;2.00;;;;;;;;5032456;27;45528;-80
2021/07/31 11:39:32;;;;;;;;;2.00;2.00;;;;;;;;5012356;27;45525;-80
2021/07/31 11:41:58;;;;;;;;;3.00;1.50;;;;;;;;5035886;27;45417;-80
2021/07/31 11:44:28;;;;;;;;;2.00;1.75;;;;;;;;5033272;27;45484;-81
2021/07/31 11:46:53;;;;;;;;;2.50;2.50;;;;;;;;5048805;27;46013;-81
2021/07/31 11:49:35;;;;;;;;;2.00;2.00;;;;;;;;5033483;28;45360;-81
2021/07/31 11:52:01;;;;;;;;;2.00;1.00;;;;;;;;5030132;27;45365;-80
2021/07/31 11:54:27;;;;;;;;;1.00;1.00;;;;;;;;5041111;27;46165;-81
2021/07/31 11:56:52;;;;;;;;;3.00;2.00;;;;;;;;5035038;27;45334;-80
2021/07/31 11:59:25;;;;;;;;;2.00;2.00;;;;;;;;5033822;27;45476;-80
2021/07/31 12:01:55;;;;;;;;;2.00;2.00;;;;;;;;5030477;27;45383;-80
2021/07/31 12:04:39;;;;;;;;;2.50;2.50;;;;;;;;5007994;28;45795;-81
2021/07/31 12:07:13;;;;;;;;;2.00;2.00;;;;;;;;5029516;27;45616;-81
2021/07/31 12:09:38;;;;;;;;;7.00;3.00;;;;;;;;5013534;27;45303;-80
2021/07/31 12:12:03;;;;;;;;;2.00;2.00;;;;;;;;5042898;27;45465;-81
2021/07/31 12:14:36;;;;;;;;;2.00;2.00;;;;;;;;5038835;27;46097;-81
2021/07/31 12:17:11;;;;;;;;;1.75;1.75;;;;;;;;5035856;27;45745;-80
2021/07/31 12:19:43;;;;;;;;;3.00;3.00;;;;;;;;5038945;28;45473;-80
2021/07/31 12:22:09;;;;;;;;;5.00;2.00;;;;;;;;5038280;27;45567;-80
2021/07/31 12:24:35;;;;;;;;;2.75;2.25;;;;;;;;5021225;27;46577;-80
2021/07/31 12:27:01;;;;;;;;;3.75;2.00;;;;;;;;5020143;27;45586;-80
2021/07/31 12:29:30;;;;;;;;;4.00;2.33;;;;;;;;5036151;27;45442;-80
2021/07/31 12:32:15;;;;;;;;;2.25;2.25;;;;;;;;5029107;27;45448;-81
2021/07/31 12:34:40;;;;;;;;;4.50;3.75;;;;;;;;5052690;27;46114;-80
2021/07/31 12:37:05;;;;;;;;;2.75;1.25;;;;;;;;5042564;27;45506;-80
2021/07/31 12:39:31;;;;;;;;;4.00;2.00;;;;;;;;5050700;27;45655;-80
2021/07/31 12:41:56;;;;;;;;;3.33;2.00;;;;;;;;5033189;27;45580;-80
2021/07/31 12:44:21;;;;;;;;;4.50;2.00;;;;;;;;5027411;27;46347;-81
2021/07/31 12:46:46;;;;;;;;;3.33;2.00;;;;;;;;5041999;27;45570;-81
2021/07/31 12:49:12;;;;;;;;;4.67;2.00;;;;;;;;5043249;27;45563;-81
2021/07/31 12:51:37;;;;;;;;;1.00;1.00;;;;;;;;5020108;27;45492;-81
2021/07/31 12:54:02;;;;;;;;;0.75;0.50;;;;;;;;5025805;27;45492;-81
2021/07/31 12:56:28;;;;;;;;;3.00;1.75;;;;;;;;5029022;27;45602;-81
2021/07/31 12:58:53;;;;;;;;;2.25;2.25;;;;;;;;5059879;27;45444;-81
2021/07/31 13:01:18;;;;;;;;;2.00;1.00;;;;;;;;5038912;27;45768;-81
2021/07/31 13:03:45;;;;;;;;;1.00;1.00;;;;;;;;5040524;27;46411;-81
2021/07/31 13:06:10;;;;;;;;;2.00;2.00;;;;;;;;5028642;27;45704;-81
2021/07/31 13:08:36;;;;;;;;;2.33;1.67;;;;;;;;5027400;27;45440;-81
2021/07/31 13:11:01;;;;;;;;;4.00;1.33;;;;;;;;5024972;27;45456;-81
2021/07/31 13:13:26;;;;;;;;;0.00;0.00;;;;;;;;5023281;27;46037;-81
2021/07/31 13:15:51;;;;;;;;;1.67;1.67;;;;;;;;5009986;27;45340;-81
2021/07/31 13:18:22;;;;;;;;;1.33;1.33;;;;;;;;5025822;27;45391;-81
2021/07/31 13:20:48;;;;;;;;;3.50;1.75;;;;;;;;5025770;27;45940;-80
2021/07/31 13:23:14;;;;;;;;;1.25;1.25;;;;;;;;5001955;28;47425;-80
2021/07/31 13:25:39;;;;;;;;;2.25;1.25;;;;;;;;5030490;28;45566;-80
2021/07/31 13:28:05;;;;;;;;;1.00;1.00;;;;;;;;5031242;27;45592;-80
2021/07/31 13:30:32;;;;;;;;;0.00;0.00;;;;;;;;5017630;27;45459;-80
2021/07/31 13:32:58;;;;;;;;;2.75;1.00;;;;;;;;5034446;27;45438;-80
2021/07/31 13:35:23;;;;;;;;;1.75;1.75;;;;;;;;5031414;27;45637;-80
2021/07/31 13:37:50;;;;;;;;;0.75;0.75;;;;;;;;5032053;27;45362;-79
2021/07/31 13:40:26;;;;;;;;;1.00;1.00;;;;;;;;5027718;28;45510;-80
2021/07/31 13:42:55;;;;;;;;;2.00;2.00;;;;;;;;5044612;27;46509;-79
2021/07/31 13:45:21;;;;;;;;;2.00;2.00;;;;;;;;5032262;27;45931;-80
2021/07/31 13:47:47;;;;;;;;;1.75;1.25;;;;;;;;5032959;27;45391;-79
2021/07/31 13:50:13;;;;;;;;;4.25;4.00;;;;;;;;5032378;27;45386;-80
2021/07/31 13:52:38;;;;;;;;;1.75;1.75;;;;;;;;5032146;28;45646;-80
2021/07/31 13:55:04;;;;;;;;;1.50;0.75;;;;;;;;5037861;27;45641;-80
2021/07/31 13:57:30;;;;;;;;;1.00;1.00;;;;;;;;5029586;27;48865;-80
2021/07/31 13:59:56;;;;;;;;;1.50;1.50;;;;;;;;5033125;27;45492;-79
2021/07/31 14:02:21;;;;;;;;;2.25;2.25;;;;;;;;5020006;27;47068;-80
2021/07/31 14:04:46;;;;;;;;;3.25;1.75;;;;;;;;5046264;28;45841;-80
2021/07/31 14:07:12;;;;;;;;;3.50;2.00;;;;;;;;5022297;27;45494;-79
2021/07/31 14:09:37;;;;;;;;;1.50;1.50;;;;;;;;5004590;27;45623;-79
2021/07/31 14:12:02;;;;;;;;;4.00;2.00;;;;;;;;5035366;27;46063;-79
2021/07/31 14:14:28;;;;;;;;;2.75;1.00;;;;;;;;5007773;27;45751;-79
2021/07/31 14:16:53;;;;;;;;;2.00;2.00;;;;;;;;5030526;27;45444;-79
2021/07/31 14:19:18;;;;;;;;;4.50;1.25;;;;;;;;5031607;28;45436;-79
2021/07/31 14:21:43;;;;;;;;;2.67;1.33;;;;;;;;5010081;27;48153;-79
2021/07/31 14:24:09;;;;;;;;;2.00;2.00;;;;;;;;5015094;27;45603;-78
2021/07/31 14:26:34;;;;;;;;;3.00;3.00;;;;;;;;5018289;27;45568;-79
2021/07/31 14:29:00;;;;;;;;;2.00;2.00;;;;;;;;5019368;27;45625;-81
2021/07/31 14:31:25;;;;;;;;;2.00;2.00;;;;;;;;5018583;28;45596;-78
2021/07/31 14:33:51;;;;;;;;;1.33;1.33;;;;;;;;5016056;27;45405;-79
2021/07/31 14:36:16;;;;;;;;;3.25;2.00;;;;;;;;5015209;28;45360;-78
2021/07/31 14:38:41;;;;;;;;;1.00;1.00;;;;;;;;5030258;27;45429;-78